createdAt,value
2022-08-23T04:03:43.652Z,59.00
2022-08-23T04:06:11.879Z,59.00
2022-08-23T04:08:39.553Z,59.10
2022-08-23T04:11:08.084Z,59.10
2022-08-23T04:13:36.340Z,59.10
2022-08-23T04:16:05.025Z,59.20
2022-08-23T04:18:33.684Z,59.20
2022-08-23T04:21:05.363Z,59.10
2022-08-23T04:23:32.314Z,58.90
2022-08-23T04:25:59.357Z,58.90
2022-08-23T04:28:34.831Z,58.90
2022-08-23T04:31:03.686Z,58.80
2022-08-23T04:33:33.165Z,58.80
2022-08-23T04:36:01.975Z,58.80
2022-08-23T04:38:32.138Z,58.80
2022-08-23T04:41:23.106Z,58.70
2022-08-23T04:43:50.670Z,58.70
2022-08-23T04:46:17.611Z,58.70
2022-08-23T04:48:46.904Z,58.80
2022-08-23T04:51:14.756Z,58.80
2022-08-23T04:53:42.037Z,58.70
2022-08-23T04:56:31.964Z,58.70
2022-08-23T04:59:02.071Z,58.60
2022-08-23T05:01:30.800Z,58.70
2022-08-23T05:03:57.948Z,58.70
2022-08-23T05:06:27.164Z,58.80
2022-08-23T05:08:53.967Z,58.90
2022-08-23T05:11:21.613Z,58.90
2022-08-23T05:13:50.064Z,59.00
2022-08-23T05:16:17.121Z,59.00
2022-08-23T05:18:55.887Z,59.20
2022-08-23T05:21:25.590Z,59.20
2022-08-23T05:23:54.560Z,59.30
2022-08-23T05:26:23.474Z,59.40
2022-08-23T05:28:50.800Z,59.40
2022-08-23T05:31:26.344Z,59.40
2022-08-23T05:33:55.480Z,59.60
2022-08-23T05:36:48.259Z,59.50
2022-08-23T05:39:26.596Z,59.40
2022-08-23T05:42:09.558Z,59.20
2022-08-23T05:44:37.827Z,59.20
2022-08-23T05:47:10.253Z,59.00
2022-08-23T05:49:41.178Z,58.90
2022-08-23T05:52:10.478Z,58.70
2022-08-23T05:54:38.136Z,58.70
2022-08-23T05:57:24.269Z,58.50
2022-08-23T05:59:51.421Z,58.50
2022-08-23T06:02:18.246Z,58.50
2022-08-23T06:04:45.260Z,58.30
2022-08-23T06:07:12.200Z,58.40
2022-08-23T06:09:39.496Z,58.50
2022-08-23T06:12:08.252Z,58.50
2022-08-23T06:14:35.144Z,58.20
2022-08-23T06:17:02.395Z,58.00
2022-08-23T06:19:30.397Z,57.70
2022-08-23T06:22:15.704Z,57.50
2022-08-23T06:24:42.938Z,57.40
2022-08-23T06:27:15.643Z,57.30
2022-08-23T06:29:42.721Z,57.10
2022-08-23T06:32:28.121Z,56.80
2022-08-23T06:35:37.934Z,56.80
2022-08-23T06:38:12.808Z,56.30
2022-08-23T06:41:04.160Z,56.10
2022-08-23T06:43:41.087Z,55.70
2022-08-23T06:46:23.551Z,55.40
2022-08-23T06:48:51.652Z,55.10
2022-08-23T06:51:27.735Z,54.60
2022-08-23T06:54:03.284Z,54.30
2022-08-23T06:56:50.025Z,54.50
2022-08-23T06:59:21.904Z,54.40
2022-08-23T07:02:14.681Z,54.10
2022-08-23T07:04:56.767Z,53.70
2022-08-23T07:07:41.292Z,53.70
2022-08-23T07:10:13.819Z,53.60
2022-08-23T07:12:42.632Z,53.50
2022-08-23T07:15:12.381Z,53.20
2022-08-23T07:17:41.989Z,53.10
2022-08-23T07:20:09.853Z,52.80
2022-08-23T07:22:40.437Z,52.70
2022-08-23T07:25:08.583Z,52.50
2022-08-23T07:27:37.335Z,52.00
2022-08-23T07:30:08.088Z,51.70
2022-08-23T07:32:37.101Z,51.60
2022-08-23T07:35:14.497Z,51.20
2022-08-23T07:37:43.679Z,51.30
2022-08-23T07:40:20.254Z,51.20
2022-08-23T07:42:49.670Z,50.90
2022-08-23T07:45:18.014Z,50.90
2022-08-23T07:47:50.587Z,51.00
2022-08-23T07:50:18.207Z,50.40
2022-08-23T07:52:46.268Z,49.90
2022-08-23T07:55:14.132Z,49.70
2022-08-23T07:58:07.243Z,49.80
2022-08-23T08:00:41.479Z,49.90
2022-08-23T08:03:28.063Z,49.80
2022-08-23T08:06:12.666Z,49.80
2022-08-23T08:08:41.460Z,49.50
2022-08-23T08:11:09.324Z,49.10
2022-08-23T08:13:39.243Z,48.80
2022-08-23T08:16:08.706Z,48.50
2022-08-23T08:18:39.420Z,48.30
2022-08-23T08:21:27.052Z,48.10
2022-08-23T08:24:16.596Z,48.10
2022-08-23T08:26:57.295Z,48.10
2022-08-23T08:29:25.090Z,48.00
2022-08-23T08:31:54.328Z,48.30
2022-08-23T08:34:22.069Z,48.30
2022-08-23T08:36:54.687Z,48.00
2022-08-23T08:39:27.521Z,47.40
2022-08-23T08:42:17.800Z,47.70
2022-08-23T08:44:57.205Z,47.60
2022-08-23T08:47:49.017Z,47.70
2022-08-23T08:50:28.491Z,47.60
2022-08-23T08:53:08.399Z,47.60
2022-08-23T08:56:07.335Z,47.10
2022-08-23T08:58:48.619Z,46.40
2022-08-23T09:01:17.848Z,46.30
2022-08-23T09:03:46.155Z,46.20
2022-08-23T09:06:38.968Z,45.80
2022-08-23T09:09:36.954Z,45.40
2022-08-23T09:12:22.923Z,45.40
2022-08-23T09:14:58.982Z,45.50
2022-08-23T09:17:49.372Z,45.20
2022-08-23T09:20:19.968Z,44.60
2022-08-23T09:22:59.906Z,44.10
2022-08-23T09:25:30.675Z,43.60
2022-08-23T09:28:09.153Z,43.80
2022-08-23T09:30:55.001Z,43.80
2022-08-23T09:33:40.889Z,44.10
2022-08-23T09:36:41.207Z,43.70
2022-08-23T09:39:30.803Z,43.50
2022-08-23T09:42:02.434Z,43.50
2022-08-23T09:44:37.258Z,43.10
2022-08-23T09:47:15.148Z,42.90
2022-08-23T09:49:48.443Z,43.00
2022-08-23T09:52:26.536Z,43.40
2022-08-23T09:55:25.146Z,43.00
2022-08-23T09:57:52.451Z,42.70
2022-08-23T10:00:27.842Z,42.30
2022-08-23T10:03:23.743Z,41.30
2022-08-23T10:05:56.802Z,41.50
2022-08-23T10:08:34.325Z,41.10
2022-08-23T10:11:30.428Z,40.70
2022-08-23T10:13:58.131Z,40.10
2022-08-23T10:16:39.767Z,38.90
2022-08-23T10:19:39.655Z,39.40
2022-08-23T10:22:20.269Z,39.60
2022-08-23T10:25:41.492Z,39.80
2022-08-23T10:28:53.345Z,40.30
2022-08-23T10:31:39.657Z,40.20
2022-08-23T10:34:21.860Z,40.40
2022-08-23T10:36:58.200Z,39.60
2022-08-23T10:39:28.616Z,39.50
2022-08-23T10:42:11.141Z,39.40
2022-08-23T10:45:15.151Z,39.20
2022-08-23T10:48:11.907Z,38.60
2022-08-23T10:51:01.807Z,38.60
2022-08-23T10:53:47.221Z,39.10
2022-08-23T10:56:19.464Z,38.70
2022-08-23T10:59:24.185Z,39.00
2022-08-23T11:02:32.220Z,39.40
2022-08-23T11:05:28.037Z,39.90
2022-08-23T11:08:06.068Z,39.70
2022-08-23T11:10:40.443Z,38.90
2022-08-23T11:13:13.970Z,38.80
2022-08-23T11:15:55.280Z,38.90
2022-08-23T11:18:34.377Z,38.30
2022-08-23T11:21:12.043Z,38.30
2022-08-23T11:23:55.899Z,38.30
2022-08-23T11:26:23.131Z,38.00
2022-08-23T11:28:51.669Z,37.50
2022-08-23T11:31:27.352Z,37.00
2022-08-23T11:34:29.680Z,36.80
2022-08-23T11:37:19.649Z,37.10
2022-08-23T11:40:18.438Z,37.70
2022-08-23T11:42:52.583Z,38.20
2022-08-23T11:45:26.178Z,38.70
2022-08-23T11:48:19.299Z,39.00
2022-08-23T11:50:57.498Z,38.70
2022-08-23T11:53:57.573Z,38.80
2022-08-23T11:56:37.013Z,39.10
2022-08-23T11:59:30.044Z,38.80
2022-08-23T12:01:59.367Z,38.20
2022-08-23T12:04:41.227Z,38.00
2022-08-23T12:07:13.036Z,37.00
2022-08-23T12:09:43.588Z,36.90
2022-08-23T12:12:23.165Z,36.60
2022-08-23T12:14:54.936Z,37.00
2022-08-23T12:17:26.111Z,37.20
2022-08-23T12:20:16.461Z,37.70
2022-08-23T12:23:07.747Z,38.30
2022-08-23T12:25:35.629Z,38.80
2022-08-23T12:28:12.423Z,38.90
2022-08-23T12:31:24.976Z,38.70
2022-08-23T12:34:10.870Z,37.90
2022-08-23T12:36:54.420Z,37.70
2022-08-23T12:39:48.527Z,37.60
2022-08-23T12:42:38.547Z,37.40
2022-08-23T12:45:05.350Z,37.80
2022-08-23T12:47:33.122Z,37.70
2022-08-23T12:50:32.451Z,37.10
2022-08-23T12:53:09.388Z,36.50
2022-08-23T12:55:46.134Z,36.30
2022-08-23T12:58:15.297Z,36.20
2022-08-23T13:00:50.515Z,36.40
2022-08-23T13:03:31.240Z,36.40
2022-08-23T13:06:05.802Z,36.40
2022-08-23T13:08:44.330Z,36.10
2022-08-23T13:11:13.561Z,36.00
2022-08-23T13:13:44.565Z,36.50
2022-08-23T13:16:37.930Z,36.70
2022-08-23T13:19:23.713Z,36.90
2022-08-23T13:22:30.026Z,37.30
2022-08-23T13:25:28.237Z,37.20
2022-08-23T13:27:59.775Z,37.30
2022-08-23T13:30:32.560Z,38.00
2022-08-23T13:33:08.711Z,38.20
2022-08-23T13:35:40.996Z,38.50
2022-08-23T13:38:11.562Z,38.70
2022-08-23T13:40:53.204Z,38.90
2022-08-23T13:43:24.245Z,39.00
2022-08-23T13:45:57.751Z,39.30
2022-08-23T13:48:31.970Z,38.60
2022-08-23T13:51:17.677Z,38.50
2022-08-23T13:53:44.502Z,37.70
2022-08-23T13:56:11.583Z,37.40
2022-08-23T13:58:38.548Z,37.30
2022-08-23T14:01:18.073Z,37.00
2022-08-23T14:03:44.977Z,37.20
2022-08-23T14:06:11.922Z,37.60
2022-08-23T14:08:38.693Z,37.90
2022-08-23T14:11:05.589Z,37.90
2022-08-23T14:13:33.628Z,37.90
2022-08-23T14:21:39.263Z,35.80
2022-08-23T14:24:06.459Z,35.40
2022-08-23T14:26:33.390Z,35.60
2022-08-23T14:29:00.485Z,36.60
2022-08-23T14:31:30.197Z,37.40
2022-08-23T14:34:01.766Z,38.30
2022-08-23T14:36:30.083Z,38.50
2022-08-23T14:38:57.148Z,38.50
2022-08-23T14:41:26.800Z,38.40
2022-08-23T14:43:54.065Z,38.10
2022-08-23T14:46:22.294Z,38.10
2022-08-23T14:48:54.693Z,38.20
2022-08-23T14:51:33.510Z,38.50
2022-08-23T14:54:05.101Z,38.90
2022-08-23T14:56:32.789Z,39.70
2022-08-23T14:58:59.835Z,39.60
2022-08-23T15:01:26.903Z,39.60
2022-08-23T15:03:53.848Z,39.40
2022-08-23T15:06:21.813Z,39.60
2022-08-23T15:08:49.220Z,40.10
2022-08-23T15:14:06.399Z,40.40
2022-08-23T15:16:34.609Z,40.40
2022-08-23T15:19:02.158Z,40.20
2022-08-23T15:21:29.081Z,40.20
2022-08-23T15:23:55.860Z,40.30
2022-08-23T15:26:28.540Z,40.30
2022-08-23T15:28:55.533Z,39.90
2022-08-23T15:31:22.397Z,39.90
2022-08-23T15:33:49.325Z,39.70
2022-08-23T15:36:16.861Z,39.70
2022-08-23T15:38:45.347Z,39.80
2022-08-23T15:41:12.408Z,39.90
2022-08-23T15:43:40.139Z,39.70
2022-08-23T15:46:10.353Z,39.80
2022-08-23T15:48:46.328Z,39.90
2022-08-23T15:51:13.332Z,40.10
2022-08-23T15:53:40.576Z,40.20
2022-08-23T15:56:11.021Z,40.20
2022-08-23T15:58:39.202Z,40.30
2022-08-23T16:01:06.852Z,40.50
2022-08-23T16:03:33.937Z,40.30
2022-08-23T16:06:02.329Z,40.10
2022-08-23T16:08:38.253Z,39.90
2022-08-23T16:11:12.117Z,39.80
2022-08-23T16:13:46.239Z,39.90
2022-08-23T16:16:24.337Z,40.20
2022-08-23T16:18:56.602Z,40.50
2022-08-23T16:21:26.338Z,40.80
2022-08-23T16:23:58.860Z,41.00
2022-08-23T16:26:34.537Z,41.20
2022-08-23T16:29:02.322Z,41.30
2022-08-23T16:31:37.440Z,41.60
2022-08-23T16:34:08.317Z,41.90
2022-08-23T16:36:35.445Z,41.60
2022-08-23T16:39:02.266Z,41.40
2022-08-23T16:41:32.909Z,41.30
2022-08-23T16:44:00.102Z,41.00
2022-08-23T16:46:29.688Z,40.70
2022-08-23T16:48:58.635Z,41.10
2022-08-23T16:51:32.996Z,42.00
2022-08-23T16:54:02.375Z,42.80
2022-08-23T16:56:34.167Z,43.10
2022-08-23T16:59:02.921Z,43.10
2022-08-23T17:01:42.248Z,43.00
2022-08-23T17:04:10.254Z,43.10
2022-08-23T17:06:37.196Z,43.30
2022-08-23T17:09:04.308Z,43.30
2022-08-23T17:11:36.900Z,42.70
2022-08-23T17:14:04.899Z,42.60
2022-08-23T17:16:44.141Z,42.80
2022-08-23T17:19:12.680Z,42.70
2022-08-23T17:21:40.540Z,42.50
2022-08-23T17:24:10.720Z,42.70
2022-08-23T17:26:38.013Z,42.80
2022-08-23T17:29:05.781Z,42.50
2022-08-23T17:31:32.793Z,42.70
2022-08-23T17:34:03.640Z,42.00
2022-08-23T17:36:42.951Z,41.40
2022-08-23T17:39:18.456Z,41.30
2022-08-23T17:41:45.823Z,41.40
2022-08-23T17:44:13.963Z,41.80
2022-08-23T17:46:43.987Z,41.90
2022-08-23T17:49:12.713Z,42.10
2022-08-23T17:51:41.317Z,42.60
2022-08-23T17:54:10.182Z,43.20
2022-08-23T17:56:38.061Z,43.80
2022-08-23T17:59:09.681Z,44.20
2022-08-23T18:01:37.897Z,44.70
2022-08-23T18:04:06.733Z,45.10
2022-08-23T18:06:36.527Z,45.40
2022-08-23T18:09:07.877Z,45.80
2022-08-23T18:11:35.329Z,46.30
2022-08-23T18:14:03.395Z,46.80
2022-08-23T18:16:35.381Z,47.10
2022-08-23T18:19:04.287Z,47.40
2022-08-23T18:21:31.470Z,47.70
2022-08-23T18:23:59.228Z,48.00
2022-08-23T18:26:46.398Z,48.30
2022-08-23T18:29:14.675Z,48.60
2022-08-23T18:31:44.308Z,49.00
2022-08-23T18:34:13.116Z,49.50
2022-08-23T18:36:40.805Z,49.90
2022-08-23T18:39:09.079Z,50.30
2022-08-23T18:41:35.989Z,50.80
2022-08-23T18:44:05.702Z,51.20
2022-08-23T18:46:39.257Z,51.60
2022-08-23T18:49:11.664Z,52.10
2022-08-23T18:51:40.671Z,52.30
2022-08-23T18:54:08.690Z,52.40
2022-08-23T18:56:36.089Z,52.70
2022-08-23T18:59:03.547Z,53.00
2022-08-23T19:01:34.195Z,53.20
2022-08-23T19:04:03.337Z,53.50
2022-08-23T19:06:31.103Z,53.70
2022-08-23T19:09:01.668Z,53.80
2022-08-23T19:11:34.747Z,54.10
2022-08-23T19:14:02.296Z,54.40
2022-08-23T19:16:30.666Z,54.70
2022-08-23T19:18:59.211Z,54.90
2022-08-23T19:21:27.026Z,55.00
2022-08-23T19:23:59.512Z,54.90
2022-08-23T19:26:31.752Z,55.10
2022-08-23T19:29:06.186Z,55.30
2022-08-23T19:31:39.622Z,55.60
2022-08-23T19:34:09.189Z,55.60
2022-08-23T19:36:46.695Z,55.70
2022-08-23T19:39:17.765Z,55.90
2022-08-23T19:41:45.268Z,56.10
2022-08-23T19:44:12.887Z,56.30
2022-08-23T19:46:43.558Z,56.40
2022-08-23T19:49:12.228Z,56.50
2022-08-23T19:51:39.885Z,56.60
2022-08-23T19:54:11.388Z,56.60
2022-08-23T19:56:58.452Z,56.70
2022-08-23T19:59:27.112Z,56.90
2022-08-23T20:01:55.613Z,57.00
2022-08-23T20:04:23.275Z,57.10
2022-08-23T20:06:50.802Z,57.20
2022-08-23T20:09:19.391Z,57.20
2022-08-23T20:11:46.563Z,57.20
2022-08-23T20:14:14.142Z,57.30
2022-08-23T20:16:42.047Z,57.50
2022-08-23T20:19:10.153Z,57.80
2022-08-23T20:21:38.765Z,58.00
2022-08-23T20:24:10.114Z,58.20
2022-08-23T20:26:42.889Z,58.40
2022-08-23T20:29:19.665Z,58.70
2022-08-23T20:32:01.902Z,58.80
2022-08-23T20:34:29.136Z,59.20
2022-08-23T20:36:57.035Z,59.20
2022-08-23T20:39:24.801Z,59.40
2022-08-23T20:41:52.987Z,59.30
2022-08-23T20:44:22.363Z,59.30
2022-08-23T20:46:53.930Z,59.30
2022-08-23T20:49:23.683Z,59.50
2022-08-23T20:51:51.634Z,59.70
2022-08-23T20:54:19.212Z,59.70
2022-08-23T20:56:46.276Z,59.80
2022-08-23T20:59:14.691Z,59.80
2022-08-23T21:01:42.070Z,59.90
2022-08-23T21:04:09.464Z,59.90
2022-08-23T21:06:45.330Z,60.00
2022-08-23T21:09:17.079Z,60.00
2022-08-23T21:11:45.400Z,60.00
2022-08-23T21:14:15.208Z,60.00
2022-08-23T21:16:44.883Z,60.10
2022-08-23T21:19:12.833Z,60.40
2022-08-23T21:21:41.112Z,60.60
2022-08-23T21:24:09.723Z,60.70
2022-08-23T21:26:37.440Z,60.80
2022-08-23T21:29:05.883Z,60.70
2022-08-23T21:31:32.849Z,60.60
2022-08-23T21:34:01.193Z,60.50
2022-08-23T21:36:28.352Z,60.60
2022-08-23T21:38:55.569Z,60.70
2022-08-23T21:41:36.881Z,60.90
2022-08-23T21:44:06.922Z,61.20
2022-08-23T21:46:34.295Z,61.00
2022-08-23T21:49:02.898Z,61.00
2022-08-23T21:51:30.091Z,61.10
2022-08-23T21:53:57.444Z,61.30
2022-08-23T21:56:26.086Z,61.30
2022-08-23T21:58:56.834Z,61.30
2022-08-23T22:01:23.883Z,61.30
2022-08-23T22:03:56.213Z,61.20
2022-08-23T22:06:24.407Z,61.20
2022-08-23T22:08:51.819Z,61.10
2022-08-23T22:11:19.067Z,61.20
2022-08-23T22:13:46.285Z,61.20
2022-08-23T22:16:13.318Z,61.10
2022-08-23T22:18:40.313Z,61.10
2022-08-23T22:21:07.411Z,61.10
2022-08-23T22:23:36.629Z,61.10
2022-08-23T22:26:06.547Z,61.20
2022-08-23T22:28:33.778Z,61.10
2022-08-23T22:31:02.368Z,61.10
2022-08-23T22:33:29.981Z,61.20
2022-08-23T22:36:09.343Z,61.20
2022-08-23T22:38:37.025Z,61.30
2022-08-23T22:41:07.503Z,61.30
2022-08-23T22:43:35.362Z,61.30
2022-08-23T22:46:05.151Z,61.30
2022-08-23T22:48:34.785Z,61.30
2022-08-23T22:51:16.280Z,61.30
2022-08-23T22:53:47.299Z,61.50
2022-08-23T22:56:21.739Z,61.40
2022-08-23T22:58:49.867Z,61.50
2022-08-23T23:07:57.840Z,61.70
2022-08-23T23:10:26.343Z,61.70
2022-08-23T23:12:55.930Z,61.80
2022-08-23T23:15:23.651Z,61.90
2022-08-23T23:17:50.911Z,62.00
2022-08-23T23:20:36.696Z,62.20
2022-08-23T23:23:09.758Z,62.30
2022-08-23T23:25:41.960Z,62.40
2022-08-23T23:28:10.105Z,62.50
2022-08-23T23:30:42.887Z,62.60
2022-08-23T23:33:11.642Z,62.60
2022-08-23T23:35:40.614Z,62.60
2022-08-23T23:38:11.927Z,62.70
2022-08-23T23:40:39.733Z,62.80
2022-08-23T23:43:12.914Z,62.80
2022-08-23T23:45:43.635Z,62.90
2022-08-23T23:48:11.382Z,63.00
2022-08-23T23:50:45.578Z,63.00
2022-08-23T23:53:15.774Z,63.10
2022-08-23T23:55:44.770Z,63.10
2022-08-23T23:58:14.982Z,63.20
